Terminal Aerodrome Forecast
Issued by NWS

Home | Current Version | Previous Version | Text Only | Print | Product List | Glossary On
Versions: 1 2 3 4 5 6 7 8 9 10 11 12 13 14 15 16 17 18 19 20 21 22 23 24 25 26 27 28 29 30 31 32 33 34 35 36 37 38 39 40 41 42 43 44 45
000
FTUS41 KRNK 191820 AAA
TAFBCB
TAF AMD
KBCB 191820Z 1918/2018 08011G18KT 5SM -RA SCT007 BKN025
     FM192100 11019G29KT 2SM RA BR OVC007
     FM200500 10008KT 1 1/2SM -RA BR OVC004 WS020/15042KT
     FM200900 19003KT 5SM BR OVC005
     FM201500 21008KT P6SM -SHRA SCT007 OVC015=

USA.gov is the U.S. government's official web portal to all federal, state and local government web resources and services.